LIPE/BLQ METAR and TAF weather

Enter ICAO airport designator
Station Type Date Time Source
LIPE METAR 2020/10/29 17:20 UTC NOAA

LIPE 291720Z VRB02KT CAVOK 13/09 Q1020


Station Type Date Time Source
LIPE Decoded METAR 2020/10/29 17:20 UTC NOAA

Bologna / Borgo Panigale, Italy (LIPE) 44-32N 011-18E 49M
Oct 29, 2020 - 01:20 PM EDT / 2020.10.29 1720 UTC
Wind: Variable at 2 MPH (2 KT):0
Visibility: greater than 7 mile(s):0
Temperature: 55 F (13 C)
Dew Point: 48 F (9 C)
Relative Humidity: 76%
Pressure (altimeter): 30.12 in. Hg (1020 hPa)
ob: LIPE 291720Z VRB02KT CAVOK 13/09 Q1020
cycle: 17

Station Type Date Time Source
LIPE TAF 2020/10/29 18:26 UTC NOAA

TAF LIPE 291700Z 2918/3018 VRB05KT CAVOK

Example: see airport list